Strona główna
METAR-TAF:

METAR-TAF

Lotnisko :

Port lotniczy Maroua

Maroua, Kamerun

Szerokość geograficzna: 10-27N, Długość geograficzna: 014-15E, wysokość: 423 m

Aktualna obserwacja pogody

Raport powstał 48 minut temu, godzina 13:00 UTC
Wiatr 4 kt od południowo-południowy zachód, zmienny między południowy wschód i zachodnio-południowy zachód
Temperatura 33°C
Wilgotność 49%
Ciśnienie 1012 hPa
Widzialność 10 km lub więcej
Brak chmur poniżej 1500 m i brak chmur cumulonimbus

METAR: FKKL 211300Z 20004KT 140V250 CAVOK 33/21 Q1012

czas: 14:48 (13:48 UTC)

Prognoza

Raport powstał 8 godziny i 48 minut temu, godzina 05:00 UTC
Prognoza ważna od 21 godzina 06 UTC do 21 godzina 18 UTC
Wiatr 6 kt z kierunków zmiennych
Widzialność 10 km lub więcej
Mało chmury na wysokości 4000 ft

TAF: FKKL 210500Z 2106/2118 VRB06KT 9999 FEW040

Obserwacja i prognoza pogody dla ponad 4000 lotnisk (raport METAR i TAF).

Dostępne stacje oznaczono żółtymi i czerwonymi punktami na mapie.

Najedź kursorem aby zobaczyć nazwę stacji.

Kliknij aby zobaczyć obserwacje i prognozy pogody.

Aby zmienić mapę: kliknij na zielony przycisk z czarnym krzyżykiem, aby powiększyć; na zielony przycisk z myślnikiem, aby pomniejszyć; na zielone strzałki, aby przejść do map sąsiednich.


METAR-TAF: